createdAt,value
2018-07-12T14:47:06.568Z,136
2018-07-12T14:47:17.981Z,111
2018-07-12T14:47:29.078Z,128
2018-07-12T14:47:40.204Z,114
2018-07-12T14:47:51.353Z,144
2018-07-12T14:48:02.389Z,121
2018-07-12T14:48:13.487Z,109
2018-07-12T14:48:24.656Z,139
2018-07-12T14:48:35.664Z,128
2018-07-12T14:48:46.736Z,122
2018-07-12T14:48:57.830Z,128
2018-07-12T14:49:08.902Z,139
2018-07-12T14:49:20.989Z,149
2018-07-12T14:49:32.065Z,108
2018-07-12T14:49:43.049Z,136
2018-07-12T14:49:54.236Z,119
2018-07-12T14:50:05.237Z,123
2018-07-12T14:50:19.577Z,119
2018-07-12T14:50:30.618Z,129
2018-07-12T14:50:41.765Z,124
2018-07-12T14:50:55.705Z,119
2018-07-12T14:51:06.833Z,111
2018-07-12T14:51:17.943Z,149
2018-07-12T14:51:29.191Z,138
2018-07-12T14:51:40.307Z,148
2018-07-12T14:51:51.425Z,118
2018-07-12T14:52:05.304Z,110
2018-07-12T14:52:16.320Z,24
2018-07-12T14:52:27.479Z,130
2018-07-12T14:52:38.563Z,118
2018-07-12T14:52:49.696Z,125
2018-07-12T14:53:01.294Z,151
2018-07-12T14:53:13.211Z,138
2018-07-12T14:53:25.250Z,100
2018-07-12T14:53:36.407Z,115
2018-07-12T14:53:51.405Z,136
2018-07-12T14:54:06.560Z,132
2018-07-12T14:54:18.441Z,148
2018-07-12T14:54:30.044Z,139
2018-07-12T14:54:42.384Z,134
2018-07-12T14:54:53.825Z,140
2018-07-12T14:55:05.136Z,143
2018-07-12T14:55:16.183Z,133
2018-07-12T14:55:27.320Z,135
2018-07-12T14:55:39.629Z,142
2018-07-12T14:55:50.699Z,155
2018-07-12T14:56:04.609Z,141
2018-07-12T14:56:15.743Z,126
2018-07-12T14:56:26.937Z,137
2018-07-12T14:56:38.152Z,136
2018-07-12T14:56:50.297Z,130
2018-07-12T14:57:04.208Z,133
2018-07-12T14:57:15.208Z,133
2018-07-12T14:57:26.311Z,138
2018-07-12T14:57:37.324Z,153
2018-07-12T14:57:48.428Z,139
2018-07-12T14:58:05.371Z,133
2018-07-12T14:58:16.431Z,145
2018-07-12T14:58:30.402Z,131
2018-07-12T14:58:41.665Z,139
2018-07-12T14:58:55.733Z,150
2018-07-12T14:59:06.853Z,128
2018-07-12T14:59:18.069Z,142
2018-07-12T14:59:29.290Z,179
2018-07-12T14:59:41.372Z,138
2018-07-12T14:59:55.482Z,140
2018-07-12T15:00:06.589Z,148
2018-07-12T15:00:17.804Z,149
2018-07-12T15:00:28.949Z,156
2018-07-12T15:00:40.000Z,161
2018-07-12T15:00:51.071Z,127
2018-07-12T15:01:02.329Z,160
2018-07-12T15:01:13.514Z,123
2018-07-12T15:01:25.663Z,140
2018-07-12T15:01:36.981Z,127
2018-07-12T15:01:48.169Z,166
2018-07-12T15:01:59.108Z,168
2018-07-12T15:02:10.417Z,113
2018-07-12T15:02:21.485Z,136
2018-07-12T15:02:32.860Z,157
2018-07-12T15:02:44.126Z,151
2018-07-12T15:02:55.284Z,164
2018-07-12T15:03:09.121Z,105
2018-07-12T15:03:20.273Z,146
2018-07-12T15:03:31.340Z,234
2018-07-12T15:03:42.477Z,137
2018-07-12T15:03:53.675Z,187
2018-07-12T15:04:04.759Z,135
2018-07-12T15:04:15.903Z,142
2018-07-12T15:04:27.007Z,162
2018-07-12T15:04:38.221Z,200
2018-07-12T15:04:49.289Z,132
2018-07-12T15:05:03.304Z,191
2018-07-12T15:05:18.128Z,156
2018-07-12T15:05:29.218Z,49
2018-07-12T15:05:40.385Z,162
2018-07-12T15:05:51.508Z,138
2018-07-12T15:06:02.556Z,139
2018-07-12T15:06:13.773Z,154
2018-07-12T15:06:24.897Z,140
2018-07-12T15:06:36.069Z,143
2018-07-12T15:06:48.264Z,166
2018-07-12T15:07:02.282Z,164
2018-07-12T15:07:13.392Z,156
2018-07-12T15:07:24.674Z,151
2018-07-12T15:07:35.907Z,169
2018-07-12T15:07:47.319Z,156
2018-07-12T15:07:58.443Z,165
2018-07-12T15:08:09.641Z,165
2018-07-12T15:08:20.795Z,130
2018-07-12T15:08:36.399Z,184
2018-07-12T15:08:47.597Z,149
2018-07-12T15:08:58.731Z,169
2018-07-12T15:09:10.431Z,147
2018-07-12T15:09:21.804Z,160
2018-07-12T15:09:32.791Z,151
2018-07-12T15:09:44.363Z,164
2018-07-12T15:09:55.526Z,160
2018-07-12T15:10:06.741Z,177
2018-07-12T15:10:18.883Z,161
2018-07-12T15:10:30.176Z,182
2018-07-12T15:10:41.484Z,160
2018-07-12T15:10:52.607Z,142
2018-07-12T15:11:07.188Z,130
2018-07-12T15:11:18.626Z,152
2018-07-12T15:11:29.832Z,166
2018-07-12T15:11:40.994Z,156
2018-07-12T15:11:52.306Z,153
2018-07-12T15:12:07.268Z,184
2018-07-12T15:12:19.101Z,156
2018-07-12T15:12:31.282Z,202
2018-07-12T15:12:42.491Z,148
2018-07-12T15:12:54.276Z,146
2018-07-12T15:13:05.800Z,207
2018-07-12T15:13:16.895Z,194
2018-07-12T15:13:28.146Z,170
2018-07-12T15:13:39.339Z,178
2018-07-12T15:13:54.260Z,177
2018-07-12T15:14:05.404Z,184
2018-07-12T15:14:16.508Z,176
2018-07-12T15:14:27.738Z,181
2018-07-12T15:14:38.960Z,166
2018-07-12T15:14:50.111Z,157
2018-07-12T15:15:01.269Z,154
2018-07-12T15:15:12.388Z,168
2018-07-12T15:15:23.644Z,170
2018-07-12T15:15:34.808Z,156
2018-07-12T15:15:45.975Z,173
2018-07-12T15:15:58.156Z,173
2018-07-12T15:16:09.762Z,139
2018-07-12T15:16:20.965Z,181
2018-07-12T15:16:32.012Z,185
2018-07-12T15:16:43.077Z,175
2018-07-12T15:16:54.203Z,170
2018-07-12T15:17:06.081Z,183
2018-07-12T15:17:17.274Z,170
2018-07-12T15:17:28.350Z,173
2018-07-12T15:17:39.515Z,176
2018-07-12T15:17:50.982Z,168
2018-07-12T15:18:02.195Z,185
2018-07-12T15:18:13.401Z,168
2018-07-12T15:18:28.408Z,181
2018-07-12T15:18:43.782Z,178
2018-07-12T15:18:54.900Z,180
2018-07-12T15:19:06.145Z,168
2018-07-12T15:19:17.954Z,151
2018-07-12T15:19:29.763Z,153
2018-07-12T15:19:40.838Z,141
2018-07-12T15:19:52.129Z,188
2018-07-12T15:20:03.535Z,197
2018-07-12T15:20:15.541Z,390
2018-07-12T15:20:26.772Z,150
2018-07-12T15:20:37.934Z,206
2018-07-12T15:20:49.080Z,204
2018-07-12T15:21:03.845Z,205
2018-07-12T15:21:15.998Z,180
2018-07-12T15:21:26.976Z,193
2018-07-12T15:21:38.108Z,153
2018-07-12T15:21:49.235Z,196
2018-07-12T15:22:00.395Z,182
2018-07-12T15:22:11.506Z,190
2018-07-12T15:22:22.684Z,178
2018-07-12T15:22:33.879Z,157
2018-07-12T15:22:45.043Z,187
2018-07-12T15:22:56.885Z,189
2018-07-12T15:23:08.712Z,181
2018-07-12T15:23:19.839Z,191
2018-07-12T15:23:32.073Z,196
2018-07-12T15:23:44.249Z,194
2018-07-12T15:23:55.333Z,172
2018-07-12T15:24:06.584Z,173
2018-07-12T15:24:21.408Z,196
2018-07-12T15:24:32.573Z,192
2018-07-12T15:24:44.796Z,204
2018-07-12T15:24:55.936Z,181
2018-07-12T15:25:07.002Z,189
2018-07-12T15:25:18.110Z,158
2018-07-12T15:25:29.816Z,187
2018-07-12T15:25:40.925Z,200
2018-07-12T15:25:52.244Z,199
2018-07-12T15:26:03.373Z,179
2018-07-12T15:26:14.378Z,173
2018-07-12T15:26:25.500Z,189
2018-07-12T15:26:39.386Z,187
2018-07-12T15:26:50.536Z,186
2018-07-12T15:27:01.672Z,149
2018-07-12T15:27:12.704Z,200
2018-07-12T15:27:23.758Z,185
2018-07-12T15:27:34.796Z,199
2018-07-12T15:27:49.027Z,174
2018-07-12T15:28:00.159Z,152
2018-07-12T15:28:11.205Z,194
2018-07-12T15:28:22.268Z,180
2018-07-12T15:28:36.388Z,197
2018-07-12T15:28:47.573Z,204
2018-07-12T15:28:58.728Z,199
2018-07-12T15:29:10.126Z,183
2018-07-12T15:29:21.279Z,180
2018-07-12T15:29:32.431Z,195
2018-07-12T15:29:43.746Z,190
2018-07-12T15:29:54.836Z,171
2018-07-12T15:30:06.043Z,192
2018-07-12T15:30:17.192Z,208
2018-07-12T15:30:31.233Z,204
2018-07-12T15:30:42.367Z,219
2018-07-12T15:30:53.578Z,198
2018-07-12T15:31:07.211Z,196
2018-07-12T15:31:18.246Z,192
2018-07-12T15:31:29.527Z,182
2018-07-12T15:31:40.672Z,201
2018-07-12T15:31:51.574Z,197
2018-07-12T15:32:03.646Z,210
2018-07-12T15:32:14.769Z,197
2018-07-12T15:32:25.881Z,202
2018-07-12T15:32:37.049Z,212
2018-07-12T15:32:48.222Z,197
2018-07-12T15:32:59.364Z,207
2018-07-12T15:33:13.252Z,170
2018-07-12T15:33:28.054Z,170
2018-07-12T15:33:39.341Z,231
2018-07-12T15:33:50.419Z,193
2018-07-12T15:34:01.541Z,217
2018-07-12T15:34:12.576Z,192
2018-07-12T15:34:23.574Z,215
2018-07-12T15:34:34.677Z,221
2018-07-12T15:34:45.899Z,195
2018-07-12T15:34:57.087Z,204
2018-07-12T15:35:08.443Z,202
2018-07-12T15:35:19.554Z,203
2018-07-12T15:35:30.735Z,204
2018-07-12T15:35:41.892Z,199
2018-07-12T15:35:52.925Z,200
2018-07-12T15:36:06.916Z,196
2018-07-12T15:36:17.987Z,228
2018-07-12T15:36:32.796Z,190
2018-07-12T15:36:43.963Z,202
2018-07-12T15:36:55.133Z,205
2018-07-12T15:37:06.516Z,191
2018-07-12T15:37:20.469Z,251
2018-07-12T15:37:31.487Z,168
2018-07-12T15:37:42.562Z,199
2018-07-12T15:37:53.792Z,217
2018-07-12T15:38:04.914Z,212
2018-07-12T15:38:16.028Z,175
2018-07-12T15:38:27.204Z,212
2018-07-12T15:38:38.354Z,197
2018-07-12T15:38:49.407Z,209
2018-07-12T15:39:00.523Z,197
2018-07-12T15:39:11.626Z,113
2018-07-12T15:39:22.810Z,221
2018-07-12T15:39:33.963Z,205
2018-07-12T15:39:45.316Z,221
2018-07-12T15:39:56.427Z,218
2018-07-12T15:40:07.534Z,229
2018-07-12T15:40:19.920Z,225
2018-07-12T15:40:31.086Z,225
2018-07-12T15:40:42.126Z,197
2018-07-12T15:40:53.227Z,218
2018-07-12T15:41:04.970Z,205
2018-07-12T15:41:16.092Z,206
2018-07-12T15:41:27.273Z,192
2018-07-12T15:41:38.426Z,231
2018-07-12T15:41:49.498Z,236
2018-07-12T15:42:04.237Z,214
2018-07-12T15:42:18.235Z,218
2018-07-12T15:42:32.201Z,214
2018-07-12T15:42:43.246Z,197
2018-07-12T15:42:57.300Z,220
2018-07-12T15:43:11.308Z,198
2018-07-12T15:43:22.458Z,212
2018-07-12T15:43:36.439Z,204
2018-07-12T15:43:47.514Z,221
2018-07-12T15:43:58.643Z,221
2018-07-12T15:44:09.855Z,218
2018-07-12T15:44:23.636Z,206
2018-07-12T15:44:34.888Z,204
2018-07-12T15:44:46.033Z,248
2018-07-12T15:44:57.117Z,225
2018-07-12T15:45:08.481Z,215
2018-07-12T15:45:22.412Z,200
2018-07-12T15:45:33.519Z,207
2018-07-12T15:45:44.527Z,216
2018-07-12T15:45:55.561Z,162
2018-07-12T15:46:06.669Z,182
2018-07-12T15:46:18.281Z,200
2018-07-12T15:46:29.371Z,236
2018-07-12T15:46:40.412Z,204
2018-07-12T15:46:51.456Z,167
2018-07-12T15:47:02.554Z,224
2018-07-12T15:47:16.518Z,231
2018-07-12T15:47:27.606Z,199
2018-07-12T15:47:38.589Z,207
2018-07-12T15:47:49.468Z,221
2018-07-12T15:48:00.497Z,216
2018-07-12T15:48:14.420Z,209
2018-07-12T15:48:25.461Z,205
2018-07-12T15:48:36.521Z,199
2018-07-12T15:48:47.633Z,207
2018-07-12T15:48:58.678Z,215
2018-07-12T15:49:10.212Z,240
2018-07-12T15:49:21.230Z,207
2018-07-12T15:49:32.231Z,221
2018-07-12T15:49:43.258Z,230
2018-07-12T15:49:54.373Z,228
2018-07-12T15:50:08.752Z,250
2018-07-12T15:50:19.800Z,238
2018-07-12T15:50:31.065Z,232
2018-07-12T15:50:42.101Z,193
2018-07-12T15:50:53.129Z,244
2018-07-12T15:51:04.403Z,235
2018-07-12T15:51:15.636Z,212
2018-07-12T15:51:26.809Z,218
2018-07-12T15:51:37.955Z,252
2018-07-12T15:51:51.919Z,222
2018-07-12T15:52:02.939Z,210
2018-07-12T15:52:14.028Z,223
2018-07-12T15:52:25.050Z,216
2018-07-12T15:52:36.241Z,201
2018-07-12T15:52:47.303Z,234
2018-07-12T15:52:58.280Z,218
2018-07-12T15:53:09.354Z,230
2018-07-12T15:53:20.396Z,229
2018-07-12T15:53:34.335Z,223
2018-07-12T15:53:45.374Z,207
2018-07-12T15:53:56.472Z,186
2018-07-12T15:54:07.487Z,216
2018-07-12T15:54:18.575Z,245
2018-07-12T15:54:29.635Z,249
2018-07-12T15:54:40.712Z,199
2018-07-12T15:54:51.968Z,206
2018-07-12T15:55:03.286Z,218
2018-07-12T15:55:17.323Z,241
2018-07-12T15:55:28.536Z,224
2018-07-12T15:55:39.621Z,221
2018-07-12T15:55:50.761Z,231
2018-07-12T15:56:01.872Z,228
2018-07-12T15:56:15.877Z,233
2018-07-12T15:56:26.910Z,220
2018-07-12T15:56:38.046Z,230
2018-07-12T15:56:49.724Z,236
2018-07-12T15:57:00.919Z,182
2018-07-12T15:57:12.171Z,234
2018-07-12T15:57:23.286Z,236
2018-07-12T15:57:34.936Z,208
2018-07-12T15:57:46.050Z,248
2018-07-12T15:57:57.180Z,229
2018-07-12T15:58:08.475Z,202
2018-07-12T15:58:23.234Z,221
2018-07-12T15:58:34.274Z,245
2018-07-12T15:58:45.351Z,207
2018-07-12T15:58:56.508Z,230
2018-07-12T15:59:07.449Z,261
2018-07-12T15:59:21.490Z,218
2018-07-12T15:59:32.552Z,255
2018-07-12T15:59:43.618Z,233
2018-07-12T15:59:57.631Z,236
2018-07-12T16:00:11.681Z,220
2018-07-12T16:00:22.727Z,213
2018-07-12T16:00:34.863Z,235
2018-07-12T16:00:48.935Z,210
2018-07-12T16:00:59.996Z,271
2018-07-12T16:01:10.959Z,219
2018-07-12T16:01:22.186Z,238
2018-07-12T16:01:33.230Z,216
2018-07-12T16:01:44.336Z,251
2018-07-12T16:01:55.450Z,253
2018-07-12T16:02:06.687Z,279
2018-07-12T16:02:17.750Z,243
2018-07-12T16:02:28.885Z,246
2018-07-12T16:02:39.999Z,223
2018-07-12T16:02:51.073Z,240
2018-07-12T16:03:02.520Z,229
2018-07-12T16:03:14.223Z,280
2018-07-12T16:03:25.297Z,228
2018-07-12T16:03:36.431Z,244
2018-07-12T16:03:47.446Z,255
2018-07-12T16:03:58.645Z,259
2018-07-12T16:04:09.655Z,233
2018-07-12T16:04:20.707Z,248
2018-07-12T16:04:31.745Z,256
2018-07-12T16:04:42.840Z,246
2018-07-12T16:04:53.975Z,229
2018-07-12T16:05:05.048Z,250
2018-07-12T16:05:16.166Z,256
2018-07-12T16:05:27.146Z,234
2018-07-12T16:05:38.226Z,233
2018-07-12T16:05:49.572Z,245
2018-07-12T16:06:00.983Z,237
2018-07-12T16:06:12.082Z,215
2018-07-12T16:06:26.879Z,247
2018-07-12T16:06:37.898Z,222
2018-07-12T16:06:48.890Z,234
2018-07-12T16:07:00.371Z,243
2018-07-12T16:07:11.542Z,240
2018-07-12T16:07:22.616Z,240
2018-07-12T16:07:33.668Z,241
2018-07-12T16:07:44.764Z,237
2018-07-12T16:07:55.813Z,272
2018-07-12T16:08:10.612Z,254
2018-07-12T16:08:21.640Z,370
2018-07-12T16:08:35.640Z,189
2018-07-12T16:08:46.676Z,243
2018-07-12T16:08:57.672Z,254
2018-07-12T16:09:08.774Z,230
2018-07-12T16:09:19.768Z,248
2018-07-12T16:09:30.843Z,243
2018-07-12T16:09:41.893Z,157
2018-07-12T16:09:52.919Z,296
2018-07-12T16:10:03.891Z,251
2018-07-12T16:10:17.965Z,258
2018-07-12T16:10:29.011Z,228
2018-07-12T16:10:40.071Z,249
2018-07-12T16:10:51.080Z,268
2018-07-12T16:11:02.120Z,250
2018-07-12T16:11:13.222Z,254
2018-07-12T16:11:24.456Z,268
2018-07-12T16:11:35.485Z,217
2018-07-12T16:11:46.456Z,252
2018-07-12T16:11:57.576Z,216
2018-07-12T16:12:12.359Z,255
